sensor_id;sensor_type;location;lat;lon;timestamp;pressure;altitude;pressure_sealevel;temperature;humidity
57628;BME280;43451;49.060;10.616;2022-10-22T00:00:55;96490.97;;;13.36;100.00
57628;BME280;43451;49.060;10.616;2022-10-22T00:03:20;96499.28;;;13.29;100.00
57628;BME280;43451;49.060;10.616;2022-10-22T00:05:47;96498.53;;;13.25;100.00
57628;BME280;43451;49.060;10.616;2022-10-22T00:08:12;96495.84;;;13.21;100.00
57628;BME280;43451;49.060;10.616;2022-10-22T00:10:38;96509.84;;;13.23;100.00
57628;BME280;43451;49.060;10.616;2022-10-22T00:13:04;96517.63;;;13.25;100.00
57628;BME280;43451;49.060;10.616;2022-10-22T00:15:29;96508.28;;;13.26;100.00
57628;BME280;43451;49.060;10.616;2022-10-22T00:17:55;96512.91;;;13.29;100.00
57628;BME280;43451;49.060;10.616;2022-10-22T00:20:20;96516.06;;;13.24;100.00
57628;BME280;43451;49.060;10.616;2022-10-22T00:22:47;96516.97;;;13.17;100.00
57628;BME280;43451;49.060;10.616;2022-10-22T00:25:13;96520.81;;;13.20;100.00
57628;BME280;43451;49.060;10.616;2022-10-22T00:27:39;96520.88;;;13.16;100.00
57628;BME280;43451;49.060;10.616;2022-10-22T00:30:05;96522.88;;;13.12;100.00
57628;BME280;43451;49.060;10.616;2022-10-22T00:32:31;96527.56;;;13.12;100.00
57628;BME280;43451;49.060;10.616;2022-10-22T00:34:56;96522.91;;;13.09;100.00
57628;BME280;43451;49.060;10.616;2022-10-22T00:37:22;96531.94;;;13.06;100.00
57628;BME280;43451;49.060;10.616;2022-10-22T00:39:47;96529.63;;;13.04;100.00
57628;BME280;43451;49.060;10.616;2022-10-22T00:42:25;96527.25;;;13.06;100.00
57628;BME280;43451;49.060;10.616;2022-10-22T00:48:02;96530.75;;;13.07;100.00
57628;BME280;43451;49.060;10.616;2022-10-22T00:53:17;96530.41;;;13.05;100.00
57628;BME280;43451;49.060;10.616;2022-10-22T00:55:45;96528.63;;;13.18;100.00
57628;BME280;43451;49.060;10.616;2022-10-22T00:58:12;96521.38;;;13.08;100.00
57628;BME280;43451;49.060;10.616;2022-10-22T01:00:38;96520.69;;;13.04;100.00
57628;BME280;43451;49.060;10.616;2022-10-22T01:03:04;96516.28;;;13.10;100.00
57628;BME280;43451;49.060;10.616;2022-10-22T01:05:32;96519.53;;;13.01;100.00
57628;BME280;43451;49.060;10.616;2022-10-22T01:08:04;96510.94;;;13.02;100.00
57628;BME280;43451;49.060;10.616;2022-10-22T01:13:15;96510.19;;;13.29;100.00
57628;BME280;43451;49.060;10.616;2022-10-22T01:18:25;96499.81;;;13.17;100.00
57628;BME280;43451;49.060;10.616;2022-10-22T01:23:56;96492.78;;;12.92;100.00
57628;BME280;43451;49.060;10.616;2022-10-22T01:31:42;96464.88;;;12.81;100.00
57628;BME280;43451;49.060;10.616;2022-10-22T01:34:11;96461.81;;;12.79;100.00
57628;BME280;43451;49.060;10.616;2022-10-22T01:36:38;96466.91;;;12.77;100.00
57628;BME280;43451;49.060;10.616;2022-10-22T01:39:04;96455.66;;;12.75;100.00
57628;BME280;43451;49.060;10.616;2022-10-22T01:41:31;96449.41;;;12.74;100.00
57628;BME280;43451;49.060;10.616;2022-10-22T01:43:58;96454.47;;;12.76;100.00
57628;BME280;43451;49.060;10.616;2022-10-22T01:46:26;96465.00;;;12.74;100.00
57628;BME280;43451;49.060;10.616;2022-10-22T01:49:15;96473.22;;;12.70;100.00
57628;BME280;43451;49.060;10.616;2022-10-22T01:54:29;96466.91;;;12.77;100.00
57628;BME280;43451;49.060;10.616;2022-10-22T01:57:07;96471.66;;;12.73;100.00
57628;BME280;43451;49.060;10.616;2022-10-22T01:59:41;96473.69;;;12.92;100.00
57628;BME280;43451;49.060;10.616;2022-10-22T02:05:11;96484.50;;;12.99;100.00
57628;BME280;43451;49.060;10.616;2022-10-22T02:08:05;96487.13;;;13.07;100.00
57628;BME280;43451;49.060;10.616;2022-10-22T02:10:36;96488.16;;;12.89;100.00
57628;BME280;43451;49.060;10.616;2022-10-22T02:13:03;96484.22;;;12.90;100.00
57628;BME280;43451;49.060;10.616;2022-10-22T02:15:32;96484.22;;;12.90;100.00
57628;BME280;43451;49.060;10.616;2022-10-22T02:18:00;96489.34;;;12.88;100.00
57628;BME280;43451;49.060;10.616;2022-10-22T02:20:28;96491.31;;;12.88;100.00
57628;BME280;43451;49.060;10.616;2022-10-22T02:22:56;96491.00;;;12.82;100.00
57628;BME280;43451;49.060;10.616;2022-10-22T02:25:24;96501.63;;;12.73;100.00
57628;BME280;43451;49.060;10.616;2022-10-22T02:30:46;96500.50;;;12.70;100.00
57628;BME280;43451;49.060;10.616;2022-10-22T02:33:29;96502.81;;;12.72;100.00
57628;BME280;43451;49.060;10.616;2022-10-22T02:35:57;96494.66;;;12.72;100.00
57628;BME280;43451;49.060;10.616;2022-10-22T02:38:24;96489.63;;;12.67;100.00
57628;BME280;43451;49.060;10.616;2022-10-22T02:40:50;96481.03;;;12.68;100.00
57628;BME280;43451;49.060;10.616;2022-10-22T02:43:17;96470.44;;;12.74;100.00
57628;BME280;43451;49.060;10.616;2022-10-22T02:45:43;96462.13;;;12.85;100.00
57628;BME280;43451;49.060;10.616;2022-10-22T02:48:08;96465.63;;;12.85;100.00
57628;BME280;43451;49.060;10.616;2022-10-22T02:50:34;96466.50;;;12.78;100.00
57628;BME280;43451;49.060;10.616;2022-10-22T02:52:59;96455.28;;;12.73;100.00
57628;BME280;43451;49.060;10.616;2022-10-22T02:55:25;96449.47;;;12.71;100.00
57628;BME280;43451;49.060;10.616;2022-10-22T02:57:50;96455.03;;;12.64;100.00
57628;BME280;43451;49.060;10.616;2022-10-22T03:00:16;96461.03;;;12.51;100.00
57628;BME280;43451;49.060;10.616;2022-10-22T03:02:41;96461.81;;;12.52;100.00
57628;BME280;43451;49.060;10.616;2022-10-22T03:05:07;96477.22;;;12.62;100.00
57628;BME280;43451;49.060;10.616;2022-10-22T03:07:33;96485.94;;;12.53;100.00
57628;BME280;43451;49.060;10.616;2022-10-22T03:09:58;96493.59;;;12.62;100.00
57628;BME280;43451;49.060;10.616;2022-10-22T03:12:24;96496.00;;;12.57;100.00
57628;BME280;43451;49.060;10.616;2022-10-22T03:14:49;96492.53;;;12.52;100.00
57628;BME280;43451;49.060;10.616;2022-10-22T03:17:15;96506.16;;;12.52;100.00
57628;BME280;43451;49.060;10.616;2022-10-22T03:19:40;96515.53;;;12.51;100.00
57628;BME280;43451;49.060;10.616;2022-10-22T03:22:13;96516.34;;;12.48;100.00
57628;BME280;43451;49.060;10.616;2022-10-22T03:24:44;96514.81;;;12.47;100.00
57628;BME280;43451;49.060;10.616;2022-10-22T03:27:12;96520.00;;;12.38;100.00
57628;BME280;43451;49.060;10.616;2022-10-22T03:29:38;96530.50;;;12.36;100.00
57628;BME280;43451;49.060;10.616;2022-10-22T03:32:05;96538.97;;;12.45;100.00
57628;BME280;43451;49.060;10.616;2022-10-22T03:34:30;96539.06;;;12.38;100.00
57628;BME280;43451;49.060;10.616;2022-10-22T03:36:58;96544.47;;;12.42;100.00
57628;BME280;43451;49.060;10.616;2022-10-22T03:39:25;96550.69;;;12.42;100.00
57628;BME280;43451;49.060;10.616;2022-10-22T03:44:29;96563.94;;;12.40;100.00
57628;BME280;43451;49.060;10.616;2022-10-22T03:46:54;96567.84;;;12.39;100.00
57628;BME280;43451;49.060;10.616;2022-10-22T03:49:20;96567.78;;;12.43;100.00
57628;BME280;43451;49.060;10.616;2022-10-22T03:51:45;96567.41;;;12.44;100.00
57628;BME280;43451;49.060;10.616;2022-10-22T03:54:11;96567.56;;;12.30;100.00
57628;BME280;43451;49.060;10.616;2022-10-22T03:56:36;96569.63;;;12.19;100.00
57628;BME280;43451;49.060;10.616;2022-10-22T03:59:02;96565.03;;;12.12;100.00
57628;BME280;43451;49.060;10.616;2022-10-22T04:01:28;96553.81;;;12.06;100.00
57628;BME280;43451;49.060;10.616;2022-10-22T04:03:55;96556.44;;;12.14;100.00
57628;BME280;43451;49.060;10.616;2022-10-22T04:06:20;96560.03;;;12.07;100.00
57628;BME280;43451;49.060;10.616;2022-10-22T04:08:46;96559.63;;;12.08;100.00
57628;BME280;43451;49.060;10.616;2022-10-22T04:11:13;96566.22;;;12.07;100.00
57628;BME280;43451;49.060;10.616;2022-10-22T04:13:40;96575.94;;;12.12;100.00
57628;BME280;43451;49.060;10.616;2022-10-22T04:16:11;96571.94;;;12.20;100.00
57628;BME280;43451;49.060;10.616;2022-10-22T04:18:37;96568.91;;;12.15;100.00
57628;BME280;43451;49.060;10.616;2022-10-22T04:21:04;96582.16;;;12.13;100.00
57628;BME280;43451;49.060;10.616;2022-10-22T04:23:29;96601.63;;;12.07;100.00
57628;BME280;43451;49.060;10.616;2022-10-22T04:26:05;96602.50;;;11.97;100.00
57628;BME280;43451;49.060;10.616;2022-10-22T04:28:32;96597.78;;;12.01;100.00
57628;BME280;43451;49.060;10.616;2022-10-22T04:30:57;96605.63;;;11.99;100.00
57628;BME280;43451;49.060;10.616;2022-10-22T04:33:23;96600.53;;;12.01;100.00
57628;BME280;43451;49.060;10.616;2022-10-22T04:35:48;96607.88;;;12.04;100.00
57628;BME280;43451;49.060;10.616;2022-10-22T04:38:14;96591.50;;;12.08;100.00
57628;BME280;43451;49.060;10.616;2022-10-22T04:40:40;96593.16;;;11.98;100.00
57628;BME280;43451;49.060;10.616;2022-10-22T04:43:05;96583.84;;;11.99;100.00
57628;BME280;43451;49.060;10.616;2022-10-22T04:45:34;96587.69;;;12.02;100.00
57628;BME280;43451;49.060;10.616;2022-10-22T04:48:00;96580.81;;;11.90;100.00
57628;BME280;43451;49.060;10.616;2022-10-22T04:50:26;96577.63;;;11.95;100.00
57628;BME280;43451;49.060;10.616;2022-10-22T04:52:52;96578.56;;;11.78;100.00
57628;BME280;43451;49.060;10.616;2022-10-22T04:55:17;96575.88;;;11.74;100.00
57628;BME280;43451;49.060;10.616;2022-10-22T04:57:43;96571.28;;;11.64;100.00
57628;BME280;43451;49.060;10.616;2022-10-22T05:00:09;96575.63;;;11.54;100.00
57628;BME280;43451;49.060;10.616;2022-10-22T05:02:35;96582.66;;;11.52;100.00
57628;BME280;43451;49.060;10.616;2022-10-22T05:05:00;96585.00;;;11.50;100.00
57628;BME280;43451;49.060;10.616;2022-10-22T05:07:26;96590.47;;;11.46;100.00
57628;BME280;43451;49.060;10.616;2022-10-22T05:09:52;96587.38;;;11.44;100.00
57628;BME280;43451;49.060;10.616;2022-10-22T05:12:17;96591.66;;;11.45;100.00
57628;BME280;43451;49.060;10.616;2022-10-22T05:14:43;96588.09;;;11.52;100.00
57628;BME280;43451;49.060;10.616;2022-10-22T05:17:08;96589.22;;;11.58;100.00
57628;BME280;43451;49.060;10.616;2022-10-22T05:19:34;96602.06;;;11.54;100.00
57628;BME280;43451;49.060;10.616;2022-10-22T05:22:01;96599.72;;;11.56;100.00
57628;BME280;43451;49.060;10.616;2022-10-22T05:24:29;96594.38;;;11.45;100.00
57628;BME280;43451;49.060;10.616;2022-10-22T05:26:56;96599.41;;;11.47;100.00
57628;BME280;43451;49.060;10.616;2022-10-22T05:29:22;96598.63;;;11.46;100.00
57628;BME280;43451;49.060;10.616;2022-10-22T05:31:48;96599.81;;;11.42;100.00
57628;BME280;43451;49.060;10.616;2022-10-22T05:34:14;96613.84;;;11.36;100.00
57628;BME280;43451;49.060;10.616;2022-10-22T05:36:40;96610.75;;;11.34;100.00
57628;BME280;43451;49.060;10.616;2022-10-22T05:39:06;96607.66;;;11.29;100.00
57628;BME280;43451;49.060;10.616;2022-10-22T05:41:33;96598.38;;;11.26;100.00
57628;BME280;43451;49.060;10.616;2022-10-22T05:44:00;96620.09;;;11.33;100.00
57628;BME280;43451;49.060;10.616;2022-10-22T05:46:28;96615.81;;;11.36;100.00
57628;BME280;43451;49.060;10.616;2022-10-22T05:48:59;96626.31;;;11.34;100.00
57628;BME280;43451;49.060;10.616;2022-10-22T05:51:27;96631.75;;;11.34;100.00
57628;BME280;43451;49.060;10.616;2022-10-22T05:53:55;96636.34;;;11.41;100.00
57628;BME280;43451;49.060;10.616;2022-10-22T05:56:21;96639.78;;;11.52;100.00
57628;BME280;43451;49.060;10.616;2022-10-22T05:58:48;96644.84;;;11.50;100.00
57628;BME280;43451;49.060;10.616;2022-10-22T06:03:41;96636.22;;;11.62;100.00
57628;BME280;43451;49.060;10.616;2022-10-22T06:06:26;96651.44;;;11.52;100.00
57628;BME280;43451;49.060;10.616;2022-10-22T06:08:53;96654.56;;;11.47;100.00
57628;BME280;43451;49.060;10.616;2022-10-22T06:11:21;96666.63;;;11.46;100.00
57628;BME280;43451;49.060;10.616;2022-10-22T06:13:48;96666.22;;;11.51;100.00
57628;BME280;43451;49.060;10.616;2022-10-22T06:16:14;96672.09;;;11.43;100.00
57628;BME280;43451;49.060;10.616;2022-10-22T06:18:39;96669.78;;;11.41;100.00
57628;BME280;43451;49.060;10.616;2022-10-22T06:21:07;96667.06;;;11.37;100.00
57628;BME280;43451;49.060;10.616;2022-10-22T06:23:33;96675.66;;;11.36;100.00
57628;BME280;43451;49.060;10.616;2022-10-22T06:25:58;96674.09;;;11.38;100.00
57628;BME280;43451;49.060;10.616;2022-10-22T06:28:25;96682.63;;;11.37;100.00
57628;BME280;43451;49.060;10.616;2022-10-22T06:30:50;96688.84;;;11.34;100.00
57628;BME280;43451;49.060;10.616;2022-10-22T06:33:16;96691.97;;;11.29;100.00
57628;BME280;43451;49.060;10.616;2022-10-22T06:35:41;96696.63;;;11.32;100.00
57628;BME280;43451;49.060;10.616;2022-10-22T06:38:07;96707.16;;;11.30;100.00
57628;BME280;43451;49.060;10.616;2022-10-22T06:40:32;96703.66;;;11.29;100.00
57628;BME280;43451;49.060;10.616;2022-10-22T06:42:59;96703.66;;;11.29;100.00
57628;BME280;43451;49.060;10.616;2022-10-22T06:45:24;96715.66;;;11.32;100.00
57628;BME280;43451;49.060;10.616;2022-10-22T06:47:50;96719.97;;;11.33;100.00
57628;BME280;43451;49.060;10.616;2022-10-22T06:50:16;96733.91;;;11.35;100.00
57628;BME280;43451;49.060;10.616;2022-10-22T06:52:41;96736.28;;;11.33;100.00
57628;BME280;43451;49.060;10.616;2022-10-22T06:55:07;96742.88;;;11.35;100.00
57628;BME280;43451;49.060;10.616;2022-10-22T06:57:33;96740.50;;;11.41;100.00
57628;BME280;43451;49.060;10.616;2022-10-22T06:59:58;96729.22;;;11.46;100.00
57628;BME280;43451;49.060;10.616;2022-10-22T07:02:24;96733.84;;;11.49;100.00
57628;BME280;43451;49.060;10.616;2022-10-22T07:04:49;96747.44;;;11.53;100.00
57628;BME280;43451;49.060;10.616;2022-10-22T07:07:14;96745.91;;;11.45;100.00
57628;BME280;43451;49.060;10.616;2022-10-22T07:09:40;96748.25;;;11.46;100.00
57628;BME280;43451;49.060;10.616;2022-10-22T07:12:06;96749.78;;;11.47;100.00
57628;BME280;43451;49.060;10.616;2022-10-22T07:14:31;96751.69;;;11.54;100.00
57628;BME280;43451;49.060;10.616;2022-10-22T07:16:56;96752.09;;;11.56;100.00
57628;BME280;43451;49.060;10.616;2022-10-22T07:19:22;96764.47;;;11.68;100.00
57628;BME280;43451;49.060;10.616;2022-10-22T07:21:47;96767.94;;;11.72;100.00
57628;BME280;43451;49.060;10.616;2022-10-22T07:24:13;96768.34;;;11.74;100.00
57628;BME280;43451;49.060;10.616;2022-10-22T07:26:38;96766.75;;;11.73;100.00
57628;BME280;43451;49.060;10.616;2022-10-22T07:29:04;96776.09;;;11.72;100.00
57628;BME280;43451;49.060;10.616;2022-10-22T07:31:30;96788.16;;;11.74;100.00
57628;BME280;43451;49.060;10.616;2022-10-22T07:33:56;96794.72;;;11.84;100.00
57628;BME280;43451;49.060;10.616;2022-10-22T07:36:22;96794.72;;;11.84;100.00
57628;BME280;43451;49.060;10.616;2022-10-22T07:38:53;96797.81;;;11.90;100.00
57628;BME280;43451;49.060;10.616;2022-10-22T07:41:19;96796.97;;;12.00;100.00
57628;BME280;43451;49.060;10.616;2022-10-22T07:43:44;96810.53;;;12.07;100.00
57628;BME280;43451;49.060;10.616;2022-10-22T07:46:10;96811.66;;;12.17;100.00
57628;BME280;43451;49.060;10.616;2022-10-22T07:48:36;96804.69;;;12.12;100.00
57628;BME280;43451;49.060;10.616;2022-10-22T07:51:02;96799.19;;;12.19;100.00
57628;BME280;43451;49.060;10.616;2022-10-22T07:53:27;96799.28;;;12.08;100.00
57628;BME280;43451;49.060;10.616;2022-10-22T07:55:53;96802.28;;;12.18;100.00
57628;BME280;43451;49.060;10.616;2022-10-22T07:58:20;96803.09;;;12.18;100.00
57628;BME280;43451;49.060;10.616;2022-10-22T08:00:46;96803.88;;;12.19;100.00
57628;BME280;43451;49.060;10.616;2022-10-22T08:03:13;96805.44;;;12.16;100.00
57628;BME280;43451;49.060;10.616;2022-10-22T08:05:39;96798.44;;;12.15;100.00
57628;BME280;43451;49.060;10.616;2022-10-22T08:08:05;96801.50;;;12.21;100.00
57628;BME280;43451;49.060;10.616;2022-10-22T08:10:31;96800.28;;;12.29;100.00
57628;BME280;43451;49.060;10.616;2022-10-22T08:12:57;96806.09;;;12.35;100.00
57628;BME280;43451;49.060;10.616;2022-10-22T08:15:23;96806.06;;;12.38;100.00
57628;BME280;43451;49.060;10.616;2022-10-22T08:17:50;96813.44;;;12.41;100.00
57628;BME280;43451;49.060;10.616;2022-10-22T08:20:15;96818.44;;;12.50;100.00
57628;BME280;43451;49.060;10.616;2022-10-22T08:22:41;96815.75;;;12.46;100.00
57628;BME280;43451;49.060;10.616;2022-10-22T08:25:07;96816.09;;;12.48;100.00
57628;BME280;43451;49.060;10.616;2022-10-22T08:27:32;96818.41;;;12.53;100.00
57628;BME280;43451;49.060;10.616;2022-10-22T08:29:58;96816.81;;;12.56;100.00
57628;BME280;43451;49.060;10.616;2022-10-22T08:32:24;96820.59;;;12.69;100.00
57628;BME280;43451;49.060;10.616;2022-10-22T08:34:50;96829.06;;;12.82;100.00
57628;BME280;43451;49.060;10.616;2022-10-22T08:37:15;96834.44;;;12.89;100.00
57628;BME280;43451;49.060;10.616;2022-10-22T08:39:42;96828.94;;;12.93;100.00
57628;BME280;43451;49.060;10.616;2022-10-22T08:50:18;96833.09;;;13.08;100.00
57628;BME280;43451;49.060;10.616;2022-10-22T08:52:48;96836.50;;;13.16;100.00
57628;BME280;43451;49.060;10.616;2022-10-22T08:55:15;96831.00;;;13.27;100.00
57628;BME280;43451;49.060;10.616;2022-10-22T08:57:56;96833.59;;;13.37;100.00
57628;BME280;43451;49.060;10.616;2022-10-22T09:00:41;96837.84;;;13.42;100.00
57628;BME280;43451;49.060;10.616;2022-10-22T09:03:37;96833.41;;;13.55;100.00
57628;BME280;43451;49.060;10.616;2022-10-22T09:06:18;96842.06;;;13.81;100.00
57628;BME280;43451;49.060;10.616;2022-10-22T09:08:46;96835.41;;;14.12;100.00
57628;BME280;43451;49.060;10.616;2022-10-22T09:13:39;96831.66;;;14.57;100.00
57628;BME280;43451;49.060;10.616;2022-10-22T09:16:15;96837.19;;;14.53;100.00
57628;BME280;43451;49.060;10.616;2022-10-22T09:21:35;96844.44;;;14.87;100.00
57628;BME280;43451;49.060;10.616;2022-10-22T09:24:18;96848.53;;;14.99;100.00
57628;BME280;43451;49.060;10.616;2022-10-22T09:26:49;96845.75;;;15.02;100.00
57628;BME280;43451;49.060;10.616;2022-10-22T09:29:21;96851.16;;;15.06;100.00
57628;BME280;43451;49.060;10.616;2022-10-22T09:31:49;96844.25;;;14.98;100.00
57628;BME280;43451;49.060;10.616;2022-10-22T09:34:19;96844.16;;;15.25;100.00
57628;BME280;43451;49.060;10.616;2022-10-22T09:36:45;96846.78;;;15.32;100.00
57628;BME280;43451;49.060;10.616;2022-10-22T09:41:55;96856.84;;;15.39;100.00
57628;BME280;43451;49.060;10.616;2022-10-22T09:44:21;96850.00;;;15.47;100.00
57628;BME280;43451;49.060;10.616;2022-10-22T09:46:47;96854.88;;;15.59;100.00
57628;BME280;43451;49.060;10.616;2022-10-22T09:49:16;96856.41;;;15.40;100.00
57628;BME280;43451;49.060;10.616;2022-10-22T09:51:56;96856.16;;;15.54;100.00
57628;BME280;43451;49.060;10.616;2022-10-22T09:54:24;96860.97;;;15.47;100.00
57628;BME280;43451;49.060;10.616;2022-10-22T09:56:54;96855.28;;;15.38;100.00
57628;BME280;43451;49.060;10.616;2022-10-22T09:59:27;96851.44;;;15.55;100.00
57628;BME280;43451;49.060;10.616;2022-10-22T10:01:58;96866.56;;;15.83;100.00
57628;BME280;43451;49.060;10.616;2022-10-22T10:04:24;96864.22;;;16.01;100.00
57628;BME280;43451;49.060;10.616;2022-10-22T10:06:53;96865.63;;;16.10;100.00
57628;BME280;43451;49.060;10.616;2022-10-22T10:09:23;96860.75;;;16.17;100.00
57628;BME280;43451;49.060;10.616;2022-10-22T10:19:58;96867.16;;;16.63;100.00
57628;BME280;43451;49.060;10.616;2022-10-22T10:22:54;96859.47;;;16.75;97.17
57628;BME280;43451;49.060;10.616;2022-10-22T10:25:33;96858.66;;;16.74;100.00
57628;BME280;43451;49.060;10.616;2022-10-22T10:34:03;96870.69;;;16.97;100.00
57628;BME280;43451;49.060;10.616;2022-10-22T10:39:22;96875.22;;;16.70;97.32
57628;BME280;43451;49.060;10.616;2022-10-22T10:42:05;96875.13;;;16.58;100.00
57628;BME280;43451;49.060;10.616;2022-10-22T10:47:53;96879.19;;;16.33;100.00
57628;BME280;43451;49.060;10.616;2022-10-22T10:50:32;96876.94;;;16.64;100.00
57628;BME280;43451;49.060;10.616;2022-10-22T10:53:20;96870.28;;;16.82;97.14
57628;BME280;43451;49.060;10.616;2022-10-22T10:56:05;96869.59;;;17.10;98.43
57628;BME280;43451;49.060;10.616;2022-10-22T11:04:23;96871.56;;;17.10;100.00
57628;BME280;43451;49.060;10.616;2022-10-22T11:06:58;96869.78;;;17.03;100.00
57628;BME280;43451;49.060;10.616;2022-10-22T11:09:29;96873.16;;;17.24;97.32
57628;BME280;43451;49.060;10.616;2022-10-22T11:12:00;96865.75;;;17.37;91.98
57628;BME280;43451;49.060;10.616;2022-10-22T11:14:37;96865.56;;;17.44;93.23
57628;BME280;43451;49.060;10.616;2022-10-22T11:17:16;96861.09;;;17.50;100.00
57628;BME280;43451;49.060;10.616;2022-10-22T11:20:14;96869.72;;;17.36;86.97
57628;BME280;43451;49.060;10.616;2022-10-22T11:22:44;96866.53;;;17.37;100.00
57628;BME280;43451;49.060;10.616;2022-10-22T11:27:55;96863.41;;;17.52;93.45
57628;BME280;43451;49.060;10.616;2022-10-22T11:30:23;96861.91;;;17.63;87.68
57628;BME280;43451;49.060;10.616;2022-10-22T11:32:56;96868.56;;;17.79;93.17
57628;BME280;43451;49.060;10.616;2022-10-22T11:35:31;96862.44;;;17.88;94.07
57628;BME280;43451;49.060;10.616;2022-10-22T11:37:58;96860.47;;;17.88;92.48
57628;BME280;43451;49.060;10.616;2022-10-22T11:42:56;96861.25;;;18.01;93.08
57628;BME280;43451;49.060;10.616;2022-10-22T11:47:58;96862.19;;;17.53;99.92
57628;BME280;43451;49.060;10.616;2022-10-22T11:53:20;96861.16;;;17.17;99.29
57628;BME280;43451;49.060;10.616;2022-10-22T11:55:47;96854.50;;;16.86;100.00
57628;BME280;43451;49.060;10.616;2022-10-22T12:11:37;96850.19;;;16.68;100.00
57628;BME280;43451;49.060;10.616;2022-10-22T12:14:21;96862.22;;;16.91;100.00
57628;BME280;43451;49.060;10.616;2022-10-22T12:21:50;96858.53;;;17.43;98.74
57628;BME280;43451;49.060;10.616;2022-10-22T12:24:19;96862.69;;;17.35;90.60
57628;BME280;43451;49.060;10.616;2022-10-22T12:26:45;96859.00;;;17.25;96.45
57628;BME280;43451;49.060;10.616;2022-10-22T12:29:15;96858.22;;;17.25;97.86
57628;BME280;43451;49.060;10.616;2022-10-22T12:31:43;96862.09;;;17.27;100.00
57628;BME280;43451;49.060;10.616;2022-10-22T12:34:16;96849.78;;;17.48;100.00
57628;BME280;43451;49.060;10.616;2022-10-22T12:36:42;96845.28;;;17.54;100.00
57628;BME280;43451;49.060;10.616;2022-10-22T12:39:13;96853.22;;;17.94;99.02
57628;BME280;43451;49.060;10.616;2022-10-22T12:41:40;96846.00;;;18.13;95.29
57628;BME280;43451;49.060;10.616;2022-10-22T12:44:05;96844.47;;;18.25;95.52
57628;BME280;43451;49.060;10.616;2022-10-22T12:46:33;96847.31;;;18.08;96.95
57628;BME280;43451;49.060;10.616;2022-10-22T12:49:02;96843.81;;;18.21;93.18
57628;BME280;43451;49.060;10.616;2022-10-22T12:51:28;96842.06;;;18.27;89.99
57628;BME280;43451;49.060;10.616;2022-10-22T12:53:57;96851.38;;;18.17;84.80
57628;BME280;43451;49.060;10.616;2022-10-22T12:56:31;96840.97;;;18.37;88.33
57628;BME280;43451;49.060;10.616;2022-10-22T12:59:00;96842.81;;;18.15;90.88
57628;BME280;43451;49.060;10.616;2022-10-22T13:01:28;96848.94;;;17.93;93.23
57628;BME280;43451;49.060;10.616;2022-10-22T13:09:45;96851.41;;;18.42;86.63
57628;BME280;43451;49.060;10.616;2022-10-22T13:12:12;96847.34;;;18.34;85.62
57628;BME280;43451;49.060;10.616;2022-10-22T13:14:45;96845.00;;;18.07;83.25
57628;BME280;43451;49.060;10.616;2022-10-22T13:17:18;96850.50;;;18.07;85.26
57628;BME280;43451;49.060;10.616;2022-10-22T13:19:48;96853.13;;;17.98;88.24
57628;BME280;43451;49.060;10.616;2022-10-22T13:22:35;96850.22;;;17.89;82.82
57628;BME280;43451;49.060;10.616;2022-10-22T13:27:42;96849.19;;;17.99;83.27
57628;BME280;43451;49.060;10.616;2022-10-22T13:30:17;96853.22;;;17.94;91.77
57628;BME280;43451;49.060;10.616;2022-10-22T13:32:49;96853.22;;;17.94;86.85
57628;BME280;43451;49.060;10.616;2022-10-22T13:35:17;96855.91;;;18.23;84.36
57628;BME280;43451;49.060;10.616;2022-10-22T13:37:45;96857.47;;;18.24;81.41
57628;BME280;43451;49.060;10.616;2022-10-22T13:40:12;96852.81;;;18.08;82.29
57628;BME280;43451;49.060;10.616;2022-10-22T13:42:37;96847.88;;;18.16;82.68
57628;BME280;43451;49.060;10.616;2022-10-22T13:45:04;96855.34;;;18.28;82.39
57628;BME280;43451;49.060;10.616;2022-10-22T13:47:30;96854.66;;;17.99;84.43
57628;BME280;43451;49.060;10.616;2022-10-22T13:50:18;96852.47;;;18.06;86.39
57628;BME280;43451;49.060;10.616;2022-10-22T13:52:46;96850.06;;;18.08;84.25
57628;BME280;43451;49.060;10.616;2022-10-22T13:55:19;96855.81;;;18.14;84.02
57628;BME280;43451;49.060;10.616;2022-10-22T13:57:45;96853.94;;;18.11;86.43
57628;BME280;43451;49.060;10.616;2022-10-22T14:00:16;96853.69;;;18.05;85.08
57628;BME280;43451;49.060;10.616;2022-10-22T14:02:43;96858.88;;;18.16;84.87
57628;BME280;43451;49.060;10.616;2022-10-22T14:05:10;96848.63;;;18.17;81.50
57628;BME280;43451;49.060;10.616;2022-10-22T14:07:36;96850.06;;;18.08;81.74
57628;BME280;43451;49.060;10.616;2022-10-22T14:10:12;96851.47;;;18.00;82.52
57628;BME280;43451;49.060;10.616;2022-10-22T14:12:38;96861.81;;;17.96;84.29
57628;BME280;43451;49.060;10.616;2022-10-22T14:15:03;96851.22;;;17.82;81.70
57628;BME280;43451;49.060;10.616;2022-10-22T14:17:29;96855.31;;;17.90;84.64
57628;BME280;43451;49.060;10.616;2022-10-22T14:19:55;96856.53;;;17.89;79.97
57628;BME280;43451;49.060;10.616;2022-10-22T14:22:21;96850.97;;;17.76;85.36
57628;BME280;43451;49.060;10.616;2022-10-22T14:24:48;96851.34;;;17.62;87.24
57628;BME280;43451;49.060;10.616;2022-10-22T14:27:16;96856.69;;;17.53;86.65
57628;BME280;43451;49.060;10.616;2022-10-22T14:29:41;96857.53;;;17.37;88.64
57628;BME280;43451;49.060;10.616;2022-10-22T14:32:16;96852.41;;;17.23;88.39
57628;BME280;43451;49.060;10.616;2022-10-22T14:34:43;96853.94;;;17.24;88.73
57628;BME280;43451;49.060;10.616;2022-10-22T14:37:16;96857.19;;;17.18;89.98
57628;BME280;43451;49.060;10.616;2022-10-22T14:39:43;96845.91;;;17.16;88.47
57628;BME280;43451;49.060;10.616;2022-10-22T14:42:11;96846.00;;;17.13;88.83